sensor_id;sensor_type;location;lat;lon;timestamp;P1;durP1;ratioP1;P2;durP2;ratioP2
59374;SDS011;45172;55.006;73.460;2022-08-30T00:02:36;56.30;;;29.27;;
59374;SDS011;45172;55.006;73.460;2022-08-30T00:05:03;59.03;;;28.13;;
59374;SDS011;45172;55.006;73.460;2022-08-30T00:07:32;49.78;;;28.25;;
59374;SDS011;45172;55.006;73.460;2022-08-30T00:09:58;54.75;;;28.23;;
59374;SDS011;45172;55.006;73.460;2022-08-30T00:12:29;44.47;;;25.15;;
59374;SDS011;45172;55.006;73.460;2022-08-30T00:15:02;39.53;;;15.68;;
59374;SDS011;45172;55.006;73.460;2022-08-30T00:17:30;57.70;;;28.50;;
59374;SDS011;45172;55.006;73.460;2022-08-30T00:20:02;63.10;;;28.02;;
59374;SDS011;45172;55.006;73.460;2022-08-30T00:22:30;58.45;;;28.83;;
59374;SDS011;45172;55.006;73.460;2022-08-30T00:24:57;54.80;;;28.65;;
59374;SDS011;45172;55.006;73.460;2022-08-30T00:27:28;60.10;;;30.00;;
59374;SDS011;45172;55.006;73.460;2022-08-30T00:30:01;64.32;;;27.92;;
59374;SDS011;45172;55.006;73.460;2022-08-30T00:32:28;76.07;;;32.22;;
59374;SDS011;45172;55.006;73.460;2022-08-30T00:34:54;56.13;;;31.48;;
59374;SDS011;45172;55.006;73.460;2022-08-30T00:37:25;38.05;;;17.55;;
59374;SDS011;45172;55.006;73.460;2022-08-30T00:39:51;56.83;;;29.95;;
59374;SDS011;45172;55.006;73.460;2022-08-30T00:42:18;64.05;;;31.58;;
59374;SDS011;45172;55.006;73.460;2022-08-30T00:44:45;55.28;;;28.50;;
59374;SDS011;45172;55.006;73.460;2022-08-30T00:47:12;59.47;;;30.30;;
59374;SDS011;45172;55.006;73.460;2022-08-30T00:49:48;70.15;;;30.10;;
59374;SDS011;45172;55.006;73.460;2022-08-30T00:52:17;65.43;;;30.13;;
59374;SDS011;45172;55.006;73.460;2022-08-30T00:54:48;59.40;;;29.98;;
59374;SDS011;45172;55.006;73.460;2022-08-30T00:57:17;58.00;;;28.73;;
59374;SDS011;45172;55.006;73.460;2022-08-30T00:59:46;66.72;;;29.30;;
59374;SDS011;45172;55.006;73.460;2022-08-30T01:02:16;54.60;;;26.80;;
59374;SDS011;45172;55.006;73.460;2022-08-30T01:04:45;54.13;;;28.13;;
59374;SDS011;45172;55.006;73.460;2022-08-30T01:07:13;53.08;;;27.85;;
59374;SDS011;45172;55.006;73.460;2022-08-30T01:09:41;60.97;;;29.40;;
59374;SDS011;45172;55.006;73.460;2022-08-30T01:12:07;67.15;;;30.98;;
59374;SDS011;45172;55.006;73.460;2022-08-30T01:14:34;62.03;;;28.40;;
59374;SDS011;45172;55.006;73.460;2022-08-30T01:17:00;63.92;;;30.75;;
59374;SDS011;45172;55.006;73.460;2022-08-30T01:19:41;77.60;;;31.85;;
59374;SDS011;45172;55.006;73.460;2022-08-30T01:24:51;82.95;;;44.47;;
59374;SDS011;45172;55.006;73.460;2022-08-30T01:27:21;77.03;;;35.65;;
59374;SDS011;45172;55.006;73.460;2022-08-30T01:29:50;69.88;;;35.83;;
59374;SDS011;45172;55.006;73.460;2022-08-30T01:32:27;58.83;;;28.77;;
59374;SDS011;45172;55.006;73.460;2022-08-30T01:34:59;60.03;;;26.88;;
59374;SDS011;45172;55.006;73.460;2022-08-30T01:37:27;64.78;;;28.45;;
59374;SDS011;45172;55.006;73.460;2022-08-30T01:39:56;50.92;;;24.58;;
59374;SDS011;45172;55.006;73.460;2022-08-30T01:42:26;50.30;;;24.55;;
59374;SDS011;45172;55.006;73.460;2022-08-30T01:44:52;47.60;;;24.13;;
59374;SDS011;45172;55.006;73.460;2022-08-30T01:47:18;56.00;;;25.45;;
59374;SDS011;45172;55.006;73.460;2022-08-30T01:49:45;53.60;;;24.98;;
59374;SDS011;45172;55.006;73.460;2022-08-30T01:52:13;66.22;;;28.98;;
59374;SDS011;45172;55.006;73.460;2022-08-30T01:54:42;60.15;;;29.65;;
59374;SDS011;45172;55.006;73.460;2022-08-30T01:57:20;70.25;;;32.58;;
59374;SDS011;45172;55.006;73.460;2022-08-30T01:59:48;64.95;;;29.33;;
59374;SDS011;45172;55.006;73.460;2022-08-30T02:02:16;59.10;;;26.52;;
59374;SDS011;45172;55.006;73.460;2022-08-30T02:04:45;63.10;;;25.63;;
59374;SDS011;45172;55.006;73.460;2022-08-30T02:07:12;68.40;;;25.48;;
59374;SDS011;45172;55.006;73.460;2022-08-30T02:09:38;61.67;;;24.45;;
59374;SDS011;45172;55.006;73.460;2022-08-30T02:12:04;60.78;;;24.52;;
59374;SDS011;45172;55.006;73.460;2022-08-30T02:14:38;52.63;;;22.97;;
59374;SDS011;45172;55.006;73.460;2022-08-30T02:17:04;59.17;;;22.80;;
59374;SDS011;45172;55.006;73.460;2022-08-30T02:19:37;54.90;;;20.95;;
59374;SDS011;45172;55.006;73.460;2022-08-30T02:22:04;49.88;;;21.83;;
59374;SDS011;45172;55.006;73.460;2022-08-30T02:24:31;53.95;;;22.25;;
59374;SDS011;45172;55.006;73.460;2022-08-30T02:26:58;58.33;;;21.85;;
59374;SDS011;45172;55.006;73.460;2022-08-30T02:29:24;51.22;;;20.30;;
59374;SDS011;45172;55.006;73.460;2022-08-30T02:31:51;53.85;;;21.05;;
59374;SDS011;45172;55.006;73.460;2022-08-30T02:34:17;51.88;;;20.65;;
59374;SDS011;45172;55.006;73.460;2022-08-30T02:36:44;53.85;;;20.67;;
59374;SDS011;45172;55.006;73.460;2022-08-30T02:39:17;55.07;;;21.23;;
59374;SDS011;45172;55.006;73.460;2022-08-30T02:41:43;50.25;;;20.90;;
59374;SDS011;45172;55.006;73.460;2022-08-30T02:44:09;53.80;;;21.70;;
59374;SDS011;45172;55.006;73.460;2022-08-30T02:46:35;63.67;;;21.52;;
59374;SDS011;45172;55.006;73.460;2022-08-30T02:49:07;66.20;;;21.20;;
59374;SDS011;45172;55.006;73.460;2022-08-30T02:51:43;62.05;;;21.30;;
59374;SDS011;45172;55.006;73.460;2022-08-30T02:54:10;71.28;;;22.15;;
59374;SDS011;45172;55.006;73.460;2022-08-30T02:56:50;62.38;;;22.75;;
59374;SDS011;45172;55.006;73.460;2022-08-30T02:59:16;65.97;;;22.90;;
59374;SDS011;45172;55.006;73.460;2022-08-30T03:01:47;63.13;;;21.77;;
59374;SDS011;45172;55.006;73.460;2022-08-30T03:04:14;122.22;;;41.20;;
59374;SDS011;45172;55.006;73.460;2022-08-30T03:06:40;75.90;;;23.50;;
59374;SDS011;45172;55.006;73.460;2022-08-30T03:09:06;72.03;;;24.00;;
59374;SDS011;45172;55.006;73.460;2022-08-30T03:11:32;78.93;;;23.10;;
59374;SDS011;45172;55.006;73.460;2022-08-30T03:13:59;76.53;;;22.65;;
59374;SDS011;45172;55.006;73.460;2022-08-30T03:16:25;77.93;;;22.13;;
59374;SDS011;45172;55.006;73.460;2022-08-30T03:18:52;62.35;;;21.95;;
59374;SDS011;45172;55.006;73.460;2022-08-30T03:21:23;74.63;;;21.55;;
59374;SDS011;45172;55.006;73.460;2022-08-30T03:23:56;63.80;;;21.92;;
59374;SDS011;45172;55.006;73.460;2022-08-30T03:26:21;67.15;;;21.08;;
59374;SDS011;45172;55.006;73.460;2022-08-30T03:28:48;122.85;;;70.43;;
59374;SDS011;45172;55.006;73.460;2022-08-30T03:31:17;76.95;;;37.10;;
59374;SDS011;45172;55.006;73.460;2022-08-30T03:33:44;71.47;;;24.02;;
59374;SDS011;45172;55.006;73.460;2022-08-30T03:36:10;63.72;;;21.33;;
59374;SDS011;45172;55.006;73.460;2022-08-30T03:38:36;69.50;;;21.95;;
59374;SDS011;45172;55.006;73.460;2022-08-30T03:41:03;71.18;;;20.65;;
59374;SDS011;45172;55.006;73.460;2022-08-30T03:43:34;60.65;;;21.45;;
59374;SDS011;45172;55.006;73.460;2022-08-30T03:46:00;62.72;;;21.13;;
59374;SDS011;45172;55.006;73.460;2022-08-30T03:48:27;69.22;;;21.95;;
59374;SDS011;45172;55.006;73.460;2022-08-30T03:50:54;57.13;;;21.00;;
59374;SDS011;45172;55.006;73.460;2022-08-30T03:53:22;62.80;;;20.88;;
59374;SDS011;45172;55.006;73.460;2022-08-30T03:55:48;65.78;;;21.67;;
59374;SDS011;45172;55.006;73.460;2022-08-30T03:58:14;56.00;;;22.42;;
59374;SDS011;45172;55.006;73.460;2022-08-30T04:00:40;72.85;;;21.50;;
59374;SDS011;45172;55.006;73.460;2022-08-30T04:03:07;61.65;;;20.80;;
59374;SDS011;45172;55.006;73.460;2022-08-30T04:05:33;71.65;;;21.17;;
59374;SDS011;45172;55.006;73.460;2022-08-30T04:08:05;52.22;;;18.80;;
59374;SDS011;45172;55.006;73.460;2022-08-30T04:10:36;51.30;;;18.00;;
59374;SDS011;45172;55.006;73.460;2022-08-30T04:13:03;47.58;;;17.83;;
59374;SDS011;45172;55.006;73.460;2022-08-30T04:15:30;55.28;;;18.13;;
59374;SDS011;45172;55.006;73.460;2022-08-30T04:18:06;50.67;;;17.75;;
59374;SDS011;45172;55.006;73.460;2022-08-30T04:20:35;61.80;;;18.40;;
59374;SDS011;45172;55.006;73.460;2022-08-30T04:23:06;69.43;;;19.55;;
59374;SDS011;45172;55.006;73.460;2022-08-30T04:25:33;52.33;;;17.67;;
59374;SDS011;45172;55.006;73.460;2022-08-30T04:28:01;53.22;;;17.90;;
59374;SDS011;45172;55.006;73.460;2022-08-30T04:30:28;62.97;;;21.02;;
59374;SDS011;45172;55.006;73.460;2022-08-30T04:32:54;66.35;;;21.00;;
59374;SDS011;45172;55.006;73.460;2022-08-30T04:35:20;62.95;;;19.27;;
59374;SDS011;45172;55.006;73.460;2022-08-30T04:37:47;73.15;;;20.27;;
59374;SDS011;45172;55.006;73.460;2022-08-30T04:40:22;77.45;;;20.30;;
59374;SDS011;45172;55.006;73.460;2022-08-30T04:42:48;59.65;;;19.65;;
59374;SDS011;45172;55.006;73.460;2022-08-30T04:45:19;51.20;;;18.77;;
59374;SDS011;45172;55.006;73.460;2022-08-30T04:47:46;50.92;;;18.98;;
59374;SDS011;45172;55.006;73.460;2022-08-30T04:50:22;53.10;;;19.65;;
59374;SDS011;45172;55.006;73.460;2022-08-30T04:52:48;75.10;;;19.27;;
59374;SDS011;45172;55.006;73.460;2022-08-30T04:55:14;60.35;;;18.80;;
59374;SDS011;45172;55.006;73.460;2022-08-30T04:57:41;58.58;;;18.23;;
59374;SDS011;45172;55.006;73.460;2022-08-30T05:00:09;50.13;;;18.02;;
59374;SDS011;45172;55.006;73.460;2022-08-30T05:02:38;48.90;;;18.23;;
59374;SDS011;45172;55.006;73.460;2022-08-30T05:05:14;49.85;;;17.60;;
59374;SDS011;45172;55.006;73.460;2022-08-30T05:07:59;50.63;;;17.40;;
59374;SDS011;45172;55.006;73.460;2022-08-30T05:10:25;49.05;;;17.58;;
59374;SDS011;45172;55.006;73.460;2022-08-30T05:12:59;58.80;;;18.50;;
59374;SDS011;45172;55.006;73.460;2022-08-30T05:15:25;54.58;;;17.88;;
59374;SDS011;45172;55.006;73.460;2022-08-30T05:17:51;59.60;;;18.25;;
59374;SDS011;45172;55.006;73.460;2022-08-30T05:20:17;79.50;;;18.55;;
59374;SDS011;45172;55.006;73.460;2022-08-30T05:22:54;57.15;;;18.10;;
59374;SDS011;45172;55.006;73.460;2022-08-30T05:25:25;60.60;;;18.10;;
59374;SDS011;45172;55.006;73.460;2022-08-30T05:27:55;61.03;;;18.27;;
59374;SDS011;45172;55.006;73.460;2022-08-30T05:30:21;50.88;;;18.65;;
59374;SDS011;45172;55.006;73.460;2022-08-30T05:32:48;51.53;;;17.55;;
59374;SDS011;45172;55.006;73.460;2022-08-30T05:35:15;43.58;;;17.50;;
59374;SDS011;45172;55.006;73.460;2022-08-30T05:37:43;48.13;;;16.88;;
59374;SDS011;45172;55.006;73.460;2022-08-30T05:40:19;44.95;;;16.88;;
59374;SDS011;45172;55.006;73.460;2022-08-30T05:42:46;44.85;;;16.85;;
59374;SDS011;45172;55.006;73.460;2022-08-30T05:45:20;49.70;;;16.70;;
59374;SDS011;45172;55.006;73.460;2022-08-30T05:47:52;41.15;;;16.58;;
59374;SDS011;45172;55.006;73.460;2022-08-30T05:50:18;49.33;;;16.00;;
59374;SDS011;45172;55.006;73.460;2022-08-30T05:52:44;38.45;;;16.45;;
59374;SDS011;45172;55.006;73.460;2022-08-30T05:55:10;71.13;;;17.55;;
59374;SDS011;45172;55.006;73.460;2022-08-30T05:57:39;41.78;;;17.35;;
59374;SDS011;45172;55.006;73.460;2022-08-30T06:00:07;42.83;;;16.48;;
59374;SDS011;45172;55.006;73.460;2022-08-30T06:02:37;45.60;;;16.80;;
59374;SDS011;45172;55.006;73.460;2022-08-30T06:05:13;53.70;;;16.38;;
59374;SDS011;45172;55.006;73.460;2022-08-30T06:07:42;40.25;;;15.45;;
59374;SDS011;45172;55.006;73.460;2022-08-30T06:10:08;39.00;;;15.60;;
59374;SDS011;45172;55.006;73.460;2022-08-30T06:12:38;34.58;;;15.45;;
59374;SDS011;45172;55.006;73.460;2022-08-30T06:15:04;43.38;;;14.30;;
59374;SDS011;45172;55.006;73.460;2022-08-30T06:17:31;39.92;;;14.90;;
59374;SDS011;45172;55.006;73.460;2022-08-30T06:20:08;39.28;;;15.10;;
59374;SDS011;45172;55.006;73.460;2022-08-30T06:22:35;45.08;;;15.05;;
59374;SDS011;45172;55.006;73.460;2022-08-30T06:25:03;38.38;;;14.98;;
59374;SDS011;45172;55.006;73.460;2022-08-30T06:27:29;48.80;;;15.00;;
59374;SDS011;45172;55.006;73.460;2022-08-30T06:29:55;42.72;;;14.88;;
59374;SDS011;45172;55.006;73.460;2022-08-30T06:32:21;39.78;;;13.63;;
59374;SDS011;45172;55.006;73.460;2022-08-30T06:34:58;33.80;;;12.95;;
59374;SDS011;45172;55.006;73.460;2022-08-30T06:37:24;22.67;;;11.77;;
59374;SDS011;45172;55.006;73.460;2022-08-30T06:39:50;32.10;;;12.40;;
59374;SDS011;45172;55.006;73.460;2022-08-30T06:42:15;26.67;;;11.75;;
59374;SDS011;45172;55.006;73.460;2022-08-30T06:44:41;23.25;;;11.05;;
59374;SDS011;45172;55.006;73.460;2022-08-30T06:47:09;20.35;;;10.45;;
59374;SDS011;45172;55.006;73.460;2022-08-30T06:49:35;27.42;;;10.70;;
59374;SDS011;45172;55.006;73.460;2022-08-30T06:52:05;19.23;;;10.27;;
59374;SDS011;45172;55.006;73.460;2022-08-30T06:54:31;35.30;;;10.48;;
59374;SDS011;45172;55.006;73.460;2022-08-30T06:57:02;24.17;;;10.95;;
59374;SDS011;45172;55.006;73.460;2022-08-30T06:59:29;19.80;;;10.88;;
59374;SDS011;45172;55.006;73.460;2022-08-30T07:01:57;24.00;;;10.63;;
59374;SDS011;45172;55.006;73.460;2022-08-30T07:04:24;18.42;;;10.57;;
59374;SDS011;45172;55.006;73.460;2022-08-30T07:06:50;20.58;;;10.23;;
59374;SDS011;45172;55.006;73.460;2022-08-30T07:09:27;16.52;;;9.50;;
59374;SDS011;45172;55.006;73.460;2022-08-30T07:11:53;18.85;;;10.38;;
59374;SDS011;45172;55.006;73.460;2022-08-30T07:14:20;61.05;;;11.68;;
59374;SDS011;45172;55.006;73.460;2022-08-30T07:16:49;45.72;;;12.20;;
59374;SDS011;45172;55.006;73.460;2022-08-30T07:19:15;24.15;;;10.63;;
59374;SDS011;45172;55.006;73.460;2022-08-30T07:21:42;25.20;;;10.43;;
59374;SDS011;45172;55.006;73.460;2022-08-30T07:24:19;22.90;;;11.30;;
59374;SDS011;45172;55.006;73.460;2022-08-30T07:26:46;32.05;;;12.05;;
59374;SDS011;45172;55.006;73.460;2022-08-30T07:29:16;24.30;;;10.32;;
59374;SDS011;45172;55.006;73.460;2022-08-30T07:31:44;30.85;;;12.45;;
59374;SDS011;45172;55.006;73.460;2022-08-30T07:34:10;28.73;;;11.73;;
59374;SDS011;45172;55.006;73.460;2022-08-30T07:36:36;16.42;;;10.60;;
59374;SDS011;45172;55.006;73.460;2022-08-30T07:39:03;20.73;;;9.50;;
59374;SDS011;45172;55.006;73.460;2022-08-30T07:41:41;24.35;;;10.88;;
59374;SDS011;45172;55.006;73.460;2022-08-30T07:44:08;20.15;;;10.55;;
59374;SDS011;45172;55.006;73.460;2022-08-30T07:46:36;23.70;;;9.80;;
59374;SDS011;45172;55.006;73.460;2022-08-30T07:49:08;27.70;;;9.82;;
59374;SDS011;45172;55.006;73.460;2022-08-30T07:51:36;15.45;;;9.25;;
59374;SDS011;45172;55.006;73.460;2022-08-30T07:54:13;15.13;;;9.60;;
59374;SDS011;45172;55.006;73.460;2022-08-30T07:56:40;22.05;;;11.73;;
59374;SDS011;45172;55.006;73.460;2022-08-30T07:59:06;23.75;;;11.15;;
59374;SDS011;45172;55.006;73.460;2022-08-30T08:01:32;29.58;;;11.10;;
59374;SDS011;45172;55.006;73.460;2022-08-30T08:03:58;63.72;;;13.65;;
59374;SDS011;45172;55.006;73.460;2022-08-30T08:06:24;58.60;;;14.95;;
59374;SDS011;45172;55.006;73.460;2022-08-30T08:08:52;68.93;;;15.25;;
59374;SDS011;45172;55.006;73.460;2022-08-30T08:11:20;46.83;;;13.48;;
59374;SDS011;45172;55.006;73.460;2022-08-30T08:13:50;42.58;;;12.85;;
59374;SDS011;45172;55.006;73.460;2022-08-30T08:16:17;52.47;;;13.98;;
59374;SDS011;45172;55.006;73.460;2022-08-30T08:18:44;42.95;;;14.05;;
59374;SDS011;45172;55.006;73.460;2022-08-30T08:21:15;52.92;;;15.32;;
59374;SDS011;45172;55.006;73.460;2022-08-30T08:23:41;29.83;;;11.85;;
59374;SDS011;45172;55.006;73.460;2022-08-30T08:26:08;40.05;;;10.82;;
59374;SDS011;45172;55.006;73.460;2022-08-30T08:28:34;25.58;;;10.82;;
59374;SDS011;45172;55.006;73.460;2022-08-30T08:31:00;23.67;;;10.90;;
59374;SDS011;45172;55.006;73.460;2022-08-30T08:33:26;33.85;;;11.38;;
59374;SDS011;45172;55.006;73.460;2022-08-30T08:35:52;18.02;;;9.95;;
59374;SDS011;45172;55.006;73.460;2022-08-30T08:38:18;21.48;;;10.05;;
59374;SDS011;45172;55.006;73.460;2022-08-30T08:43:19;24.55;;;9.93;;
59374;SDS011;45172;55.006;73.460;2022-08-30T08:48:38;41.70;;;12.05;;
59374;SDS011;45172;55.006;73.460;2022-08-30T08:51:08;22.50;;;10.70;;
59374;SDS011;45172;55.006;73.460;2022-08-30T08:54:20;14.65;;;9.27;;
59374;SDS011;45172;55.006;73.460;2022-08-30T08:56:47;17.27;;;9.15;;
59374;SDS011;45172;55.006;73.460;2022-08-30T08:59:14;15.48;;;9.27;;
59374;SDS011;45172;55.006;73.460;2022-08-30T09:01:41;17.67;;;10.00;;
59374;SDS011;45172;55.006;73.460;2022-08-30T09:04:10;14.48;;;9.55;;
59374;SDS011;45172;55.006;73.460;2022-08-30T09:09:48;33.22;;;11.02;;
59374;SDS011;45172;55.006;73.460;2022-08-30T09:12:15;28.80;;;10.90;;
59374;SDS011;45172;55.006;73.460;2022-08-30T09:14:45;19.67;;;10.73;;
59374;SDS011;45172;55.006;73.460;2022-08-30T09:17:16;22.45;;;11.25;;
59374;SDS011;45172;55.006;73.460;2022-08-30T09:25:23;30.45;;;11.50;;
59374;SDS011;45172;55.006;73.460;2022-08-30T09:27:52;31.73;;;12.63;;
59374;SDS011;45172;55.006;73.460;2022-08-30T09:30:32;35.65;;;14.65;;
59374;SDS011;45172;55.006;73.460;2022-08-30T09:32:59;26.48;;;12.60;;
59374;SDS011;45172;55.006;73.460;2022-08-30T09:35:32;35.17;;;14.48;;
59374;SDS011;45172;55.006;73.460;2022-08-30T09:40:43;45.13;;;21.23;;
59374;SDS011;45172;55.006;73.460;2022-08-30T09:43:23;38.95;;;17.95;;
59374;SDS011;45172;55.006;73.460;2022-08-30T09:48:38;76.53;;;23.25;;
59374;SDS011;45172;55.006;73.460;2022-08-30T09:53:52;62.47;;;22.08;;
59374;SDS011;45172;55.006;73.460;2022-08-30T10:02:20;31.73;;;19.73;;
59374;SDS011;45172;55.006;73.460;2022-08-30T10:04:43;29.05;;;15.30;;
59374;SDS011;45172;55.006;73.460;2022-08-30T10:10:01;41.08;;;21.95;;
59374;SDS011;45172;55.006;73.460;2022-08-30T10:15:24;31.15;;;17.20;;
59374;SDS011;45172;55.006;73.460;2022-08-30T10:23:57;43.83;;;18.60;;
59374;SDS011;45172;55.006;73.460;2022-08-30T10:35:05;22.38;;;11.38;;
59374;SDS011;45172;55.006;73.460;2022-08-30T10:37:36;26.17;;;11.45;;
59374;SDS011;45172;55.006;73.460;2022-08-30T10:40:19;26.50;;;10.98;;
59374;SDS011;45172;55.006;73.460;2022-08-30T10:43:25;27.85;;;10.45;;
59374;SDS011;45172;55.006;73.460;2022-08-30T10:45:52;29.70;;;10.70;;
59374;SDS011;45172;55.006;73.460;2022-08-30T10:48:26;22.75;;;10.25;;
59374;SDS011;45172;55.006;73.460;2022-08-30T10:51:00;31.05;;;10.25;;
59374;SDS011;45172;55.006;73.460;2022-08-30T10:53:45;16.88;;;10.23;;
59374;SDS011;45172;55.006;73.460;2022-08-30T10:56:17;19.33;;;9.55;;
59374;SDS011;45172;55.006;73.460;2022-08-30T10:58:48;41.30;;;13.23;;
59374;SDS011;45172;55.006;73.460;2022-08-30T11:04:12;40.55;;;14.63;;
59374;SDS011;45172;55.006;73.460;2022-08-30T11:09:47;51.22;;;13.95;;
59374;SDS011;45172;55.006;73.460;2022-08-30T11:14:53;65.07;;;14.63;;
59374;SDS011;45172;55.006;73.460;2022-08-30T11:17:31;38.22;;;13.90;;
59374;SDS011;45172;55.006;73.460;2022-08-30T11:20:20;48.40;;;13.70;;
59374;SDS011;45172;55.006;73.460;2022-08-30T11:31:32;37.38;;;12.82;;
59374;SDS011;45172;55.006;73.460;2022-08-30T11:34:05;62.97;;;13.75;;
59374;SDS011;45172;55.006;73.460;2022-08-30T11:39:11;41.53;;;11.93;;
59374;SDS011;45172;55.006;73.460;2022-08-30T11:42:23;33.58;;;12.43;;
59374;SDS011;45172;55.006;73.460;2022-08-30T11:47:53;37.35;;;12.30;;
59374;SDS011;45172;55.006;73.460;2022-08-30T12:00:50;30.83;;;13.23;;
59374;SDS011;45172;55.006;73.460;2022-08-30T12:07:13;33.28;;;11.43;;
59374;SDS011;45172;55.006;73.460;2022-08-30T12:14:42;32.30;;;11.93;;
59374;SDS011;45172;55.006;73.460;2022-08-30T12:17:23;32.65;;;12.63;;
59374;SDS011;45172;55.006;73.460;2022-08-30T12:20:15;52.60;;;14.82;;
59374;SDS011;45172;55.006;73.460;2022-08-30T12:25:27;37.67;;;13.45;;
59374;SDS011;45172;55.006;73.460;2022-08-30T12:28:07;41.55;;;15.50;;
59374;SDS011;45172;55.006;73.460;2022-08-30T12:30:51;38.70;;;15.25;;
59374;SDS011;45172;55.006;73.460;2022-08-30T12:33:25;44.50;;;12.88;;
59374;SDS011;45172;55.006;73.460;2022-08-30T12:36:02;46.75;;;20.05;;
59374;SDS011;45172;55.006;73.460;2022-08-30T12:38:32;52.40;;;19.45;;
59374;SDS011;45172;55.006;73.460;2022-08-30T12:40:59;47.47;;;18.83;;
59374;SDS011;45172;55.006;73.460;2022-08-30T12:43:32;47.20;;;17.95;;
59374;SDS011;45172;55.006;73.460;2022-08-30T12:45:59;50.75;;;16.10;;
59374;SDS011;45172;55.006;73.460;2022-08-30T12:48:33;66.78;;;14.80;;
59374;SDS011;45172;55.006;73.460;2022-08-30T12:51:01;129.35;;;18.27;;
59374;SDS011;45172;55.006;73.460;2022-08-30T12:55:59;85.30;;;18.08;;
59374;SDS011;45172;55.006;73.460;2022-08-30T12:58:36;45.00;;;14.82;;
59374;SDS011;45172;55.006;73.460;2022-08-30T13:01:24;33.50;;;15.30;;
59374;SDS011;45172;55.006;73.460;2022-08-30T13:06:37;34.55;;;18.83;;
59374;SDS011;45172;55.006;73.460;2022-08-30T13:09:24;42.38;;;18.88;;
59374;SDS011;45172;55.006;73.460;2022-08-30T13:11:59;32.90;;;15.52;;
59374;SDS011;45172;55.006;73.460;2022-08-30T13:14:41;27.75;;;13.25;;
59374;SDS011;45172;55.006;73.460;2022-08-30T13:19:38;34.42;;;12.88;;
59374;SDS011;45172;55.006;73.460;2022-08-30T13:22:22;24.40;;;11.02;;
59374;SDS011;45172;55.006;73.460;2022-08-30T13:24:56;25.42;;;10.63;;
59374;SDS011;45172;55.006;73.460;2022-08-30T13:27:23;31.35;;;11.75;;
59374;SDS011;45172;55.006;73.460;2022-08-30T13:29:57;47.97;;;13.40;;
59374;SDS011;45172;55.006;73.460;2022-08-30T13:32:31;31.30;;;11.80;;
59374;SDS011;45172;55.006;73.460;2022-08-30T13:35:07;118.53;;;19.38;;
59374;SDS011;45172;55.006;73.460;2022-08-30T13:37:43;112.15;;;16.80;;
59374;SDS011;45172;55.006;73.460;2022-08-30T13:40:10;57.03;;;13.88;;
59374;SDS011;45172;55.006;73.460;2022-08-30T13:42:37;52.75;;;14.05;;
59374;SDS011;45172;55.006;73.460;2022-08-30T13:45:07;45.20;;;14.70;;
59374;SDS011;45172;55.006;73.460;2022-08-30T13:47:45;40.53;;;13.32;;
59374;SDS011;45172;55.006;73.460;2022-08-30T13:50:18;31.75;;;17.58;;
59374;SDS011;45172;55.006;73.460;2022-08-30T13:52:44;61.53;;;14.27;;
59374;SDS011;45172;55.006;73.460;2022-08-30T13:55:11;72.72;;;13.90;;
59374;SDS011;45172;55.006;73.460;2022-08-30T13:57:40;116.75;;;14.57;;
59374;SDS011;45172;55.006;73.460;2022-08-30T14:00:08;102.22;;;18.98;;
59374;SDS011;45172;55.006;73.460;2022-08-30T14:02:44;77.57;;;13.77;;
59374;SDS011;45172;55.006;73.460;2022-08-30T14:05:12;100.78;;;15.05;;
59374;SDS011;45172;55.006;73.460;2022-08-30T14:07:42;93.60;;;16.02;;
59374;SDS011;45172;55.006;73.460;2022-08-30T14:10:08;58.72;;;15.25;;
59374;SDS011;45172;55.006;73.460;2022-08-30T14:12:45;82.85;;;15.30;;
59374;SDS011;45172;55.006;73.460;2022-08-30T14:15:11;81.00;;;15.48;;
59374;SDS011;45172;55.006;73.460;2022-08-30T14:17:37;123.47;;;20.77;;
59374;SDS011;45172;55.006;73.460;2022-08-30T14:20:03;89.55;;;30.35;;
59374;SDS011;45172;55.006;73.460;2022-08-30T14:22:30;97.57;;;23.83;;
59374;SDS011;45172;55.006;73.460;2022-08-30T14:24:56;121.95;;;38.38;;
59374;SDS011;45172;55.006;73.460;2022-08-30T14:27:22;172.40;;;30.35;;
59374;SDS011;45172;55.006;73.460;2022-08-30T14:29:58;126.00;;;30.20;;
59374;SDS011;45172;55.006;73.460;2022-08-30T14:32:24;126.07;;;32.92;;
59374;SDS011;45172;55.006;73.460;2022-08-30T14:34:51;140.60;;;35.88;;
59374;SDS011;45172;55.006;73.460;2022-08-30T14:37:17;104.80;;;28.98;;
59374;SDS011;45172;55.006;73.460;2022-08-30T14:39:43;105.90;;;31.75;;
59374;SDS011;45172;55.006;73.460;2022-08-30T14:42:19;87.65;;;28.38;;
59374;SDS011;45172;55.006;73.460;2022-08-30T14:44:45;123.07;;;40.83;;
59374;SDS011;45172;55.006;73.460;2022-08-30T14:47:22;121.43;;;53.10;;
59374;SDS011;45172;55.006;73.460;2022-08-30T14:49:48;127.43;;;48.15;;
59374;SDS011;45172;55.006;73.460;2022-08-30T14:52:14;150.35;;;71.80;;
59374;SDS011;45172;55.006;73.460;2022-08-30T14:54:40;121.13;;;54.38;;
59374;SDS011;45172;55.006;73.460;2022-08-30T14:57:06;128.93;;;50.03;;
59374;SDS011;45172;55.006;73.460;2022-08-30T14:59:32;125.78;;;54.85;;
59374;SDS011;45172;55.006;73.460;2022-08-30T15:01:59;143.40;;;78.13;;
59374;SDS011;45172;55.006;73.460;2022-08-30T15:04:25;132.27;;;59.60;;
59374;SDS011;45172;55.006;73.460;2022-08-30T15:06:54;100.15;;;40.83;;
59374;SDS011;45172;55.006;73.460;2022-08-30T15:09:30;111.13;;;47.75;;
59374;SDS011;45172;55.006;73.460;2022-08-30T15:11:57;111.20;;;39.47;;
59374;SDS011;45172;55.006;73.460;2022-08-30T15:14:26;87.40;;;34.90;;
59374;SDS011;45172;55.006;73.460;2022-08-30T15:16:53;99.40;;;35.95;;
59374;SDS011;45172;55.006;73.460;2022-08-30T15:19:25;78.63;;;35.33;;
59374;SDS011;45172;55.006;73.460;2022-08-30T15:21:52;83.97;;;34.28;;
59374;SDS011;45172;55.006;73.460;2022-08-30T15:24:22;103.72;;;34.10;;
59374;SDS011;45172;55.006;73.460;2022-08-30T15:26:49;95.45;;;32.70;;
59374;SDS011;45172;55.006;73.460;2022-08-30T15:29:17;86.65;;;32.75;;
59374;SDS011;45172;55.006;73.460;2022-08-30T15:31:44;89.95;;;32.80;;
59374;SDS011;45172;55.006;73.460;2022-08-30T15:34:14;93.05;;;33.72;;
59374;SDS011;45172;55.006;73.460;2022-08-30T15:36:42;120.13;;;36.67;;
59374;SDS011;45172;55.006;73.460;2022-08-30T15:41:55;145.38;;;50.00;;
59374;SDS011;45172;55.006;73.460;2022-08-30T15:44:21;128.55;;;43.67;;
59374;SDS011;45172;55.006;73.460;2022-08-30T15:46:47;134.38;;;49.40;;
59374;SDS011;45172;55.006;73.460;2022-08-30T15:49:16;131.38;;;48.22;;
59374;SDS011;45172;55.006;73.460;2022-08-30T15:51:44;138.68;;;49.88;;
59374;SDS011;45172;55.006;73.460;2022-08-30T15:54:13;145.20;;;53.47;;
59374;SDS011;45172;55.006;73.460;2022-08-30T15:56:41;167.75;;;62.90;;
59374;SDS011;45172;55.006;73.460;2022-08-30T15:59:07;190.80;;;64.40;;
59374;SDS011;45172;55.006;73.460;2022-08-30T16:01:34;190.27;;;59.00;;
59374;SDS011;45172;55.006;73.460;2022-08-30T16:04:00;239.18;;;61.35;;
59374;SDS011;45172;55.006;73.460;2022-08-30T16:06:29;195.88;;;58.15;;
59374;SDS011;45172;55.006;73.460;2022-08-30T16:08:59;203.25;;;62.55;;
59374;SDS011;45172;55.006;73.460;2022-08-30T16:11:25;221.95;;;73.53;;